Latest Weather Observations for Moss Vale

IDN60801

Issued at 5:04 pm EDT Friday 19 December 2014 (issued every 30 minutes, with the page automatically refreshed every 10 minutes)

About weather observations | Map of weather stations | Latest weather observations for NSW | Other Formats
Station Details ID: 068239 Name: MOSS VALE AWS Lat: -34.53 Lon: 150.42 Height: 678.4 m
Data from the previous 72 hours. | See also: Recent months at Moss Vale
Date/Time
EDT
Temp
°C
App
Temp
°C
Dew
Point
Rel
Hum
%
Delta-T
°C
Wind Press
QNH
hPa
Press
MSL
hPa
Rain
since 9 am
mm
Dir
 
Spd
km/h
Gust
km/h
Spd
kts
Gust
kts
19/05:00pm 15.6 11.8 9.9 69 3.1 ESE 20 26 11 14 1014.4 1011.9 0.0
19/04:30pm 16.3 12.8 10.2 67 3.3 ESE 19 26 10 14 1014.2 1011.7 0.0
19/04:00pm 16.3 12.8 10.8 70 3.0 E 20 26 11 14 1014.1 1011.6 0.0
19/03:30pm 16.3 12.0 10.8 70 3.0 ESE 24 30 13 16 1014.1 1011.6 0.0
19/03:00pm 16.1 11.8 10.8 71 2.9 ESE 24 33 13 18 1014.0 1011.5 0.0
19/02:30pm 16.8 13.0 11.1 69 3.2 ENE 22 30 12 16 1013.8 1011.3 0.0
19/02:00pm 17.5 14.6 12.8 74 2.7 E 20 28 11 15 1013.8 1011.3 0.0
19/01:30pm 16.4 11.6 11.6 73 2.7 ESE 28 35 15 19 1013.8 1011.3 0.0
19/01:00pm 17.3 13.2 11.6 69 3.2 E 24 35 13 19 1013.6 1011.1 0.0
19/12:30pm 19.7 17.9 9.6 52 5.6 W 9 20 5 11 1013.6 1011.1 0.0
19/12:00pm 19.5 17.8 10.0 54 5.3 W 9 13 5 7 1013.7 1011.2 0.0
19/11:30am 17.7 15.9 9.6 59 4.4 SSE 9 13 5 7 1013.8 1011.3 0.0
19/11:00am 17.1 15.7 9.0 59 4.3 SSE 6 13 3 7 1014.0 1011.5 0.0
19/10:30am 16.8 14.9 9.2 61 4.1 S 9 13 5 7 1014.0 1011.5 0.0
19/10:00am 16.2 14.3 9.2 63 3.7 ESE 9 15 5 8 1014.1 1011.6 0.0
19/09:30am 15.6 14.1 10.4 71 2.8 ESE 9 15 5 8 1014.0 1011.5 0.0
19/09:00am 14.8 13.4 11.0 78 2.1 ESE 9 19 5 10 1014.0 1011.5 0.0
19/08:30am 14.9 13.0 10.5 75 2.4 SE 11 19 6 10 1013.9 1011.4 0.0
19/08:00am 13.3 11.3 10.1 81 1.7 SE 11 15 6 8 1013.7 1011.2 0.0
19/07:59am 13.3 11.4 10.5 83 1.5 SE 11 15 6 8 1013.7 1011.2 0.0
19/07:42am 12.6 10.3 10.5 87 1.1 SE 13 17 7 9 1013.5 1011.0 0.0
19/07:30am 12.3 9.9 10.2 87 1.1 SE 13 17 7 9 1013.4 1010.9 0.0
19/07:23am 12.2 9.4 10.1 87 1.1 SE 15 20 8 11 1013.4 1010.9 0.0
19/07:04am 12.0 9.6 10.1 88 1.0 SE 13 17 7 9 1013.0 1010.5 0.0
19/07:00am 11.8 8.9 9.7 87 1.1 SE 15 20 8 11 1013.0 1010.5 0.0
19/06:30am 11.6 9.0 9.5 87 1.1 SE 13 19 7 10 1012.5 1010.0 0.0
19/06:13am 11.3 8.8 9.6 89 0.9 SE 13 17 7 9 1012.3 1009.8 0.0
19/06:00am 11.2 7.9 9.6 90 0.8 SE 17 22 9 12 1012.2 1009.7 0.0
19/05:30am 12.0 9.1 10.9 93 0.6 SSE 17 28 9 15 1011.8 1009.2 0.0
19/05:11am 12.1 10.4 11.2 94 0.5 SSE 11 17 6 9 1011.4 1008.9 0.0
19/05:00am 11.8 9.6 10.7 93 0.6 SSE 13 17 7 9 1011.4 1008.9 0.0
19/04:40am 11.8 9.9 10.5 92 0.7 SSE 11 15 6 8 1011.2 1008.7 0.0
19/04:30am 12.1 9.9 10.7 91 0.8 SSE 13 17 7 9 1011.1 1008.6 0.0
19/04:07am 12.4 10.3 11.3 93 0.6 SSE 13 19 7 10 1010.9 1008.4 0.0
19/04:00am 12.4 9.6 11.3 93 0.6 SSE 17 24 9 13 1010.8 1008.3 0.0
19/03:30am 11.6 7.4 5.5 66 2.9 SSW 17 30 9 16 1010.4 1007.8 0.0
19/03:00am 13.2 9.8 5.9 61 3.6 W 13 15 7 8 1010.1 1007.5 0.0
19/02:30am 13.6 9.8 6.0 60 3.7 WSW 15 17 8 9 1010.0 1007.4 0.0
19/02:00am 13.2 9.5 6.5 64 3.3 W 15 19 8 10 1009.7 1007.2 0.0
19/01:30am 13.4 11.2 6.0 61 3.6 WNW 7 9 4 5 1009.4 1006.9 0.0
19/01:00am 13.5 11.6 6.6 63 3.5 NE 6 7 3 4 1009.4 1006.9 0.0
19/12:30am 13.1 12.4 7.1 67 3.0 CALM 0 0 0 0 1009.2 1006.6 0.0
19/12:00am 14.3 12.1 6.2 58 4.0 NW 7 9 4 5 1009.1 1006.5 0.0
 
Date/Time
EDT
Temp
°C
App
Temp
°C
Dew
Point
Rel
Hum
%
Delta-T
°C
Wind Press
QNH
hPa
Press
MSL
hPa
Rain
since 9 am
mm
Dir
 
Spd
km/h
Gust
km/h
Spd
kts
Gust
kts
18/11:30pm 15.4 14.2 4.8 49 5.2 CALM 0 0 0 0 1009.1 1006.5 0.0
18/11:00pm 16.0 14.7 4.1 45 5.8 CALM 0 0 0 0 1009.1 1006.5 0.0
18/10:30pm 17.3 14.6 2.9 38 6.8 WNW 6 7 3 4 1009.2 1006.6 0.0
18/10:00pm 18.0 15.2 1.9 34 7.6 WNW 6 7 3 4 1009.2 1006.6 0.0
18/09:30pm 19.8 16.9 1.3 29 8.7 WNW 6 7 3 4 1009.0 1006.4 0.0
18/09:00pm 20.4 17.4 1.8 29 8.9 W 7 9 4 5 1008.8 1006.2 0.0
18/08:30pm 21.6 18.2 1.8 27 9.5 WNW 9 13 5 7 1008.6 1006.0 0.0
18/08:00pm 22.4 18.3 2.0 26 9.9 W 13 19 7 10 1008.1 1005.6 0.0
18/07:30pm 23.7 18.3 2.5 25 10.5 W 20 28 11 15 1007.7 1005.1 0.0
18/07:00pm 24.8 17.4 1.7 22 11.4 W 30 41 16 22 1007.3 1004.7 0.0
18/06:30pm 25.3 18.5 3.3 24 11.1 W 28 39 15 21 1006.9 1004.3 0.0
18/06:13pm 25.5 18.7 2.9 23 11.4 W 28 46 15 25 1006.6 1004.0 0.0
18/06:00pm 24.2 22.9 15.7 59 5.3 NW 17 24 9 13 1006.7 1004.0 0.0
18/05:30pm 22.6 20.2 16.4 68 3.9 NE 24 32 13 17 1006.3 1003.7 0.0
18/05:00pm 22.6 20.7 16.6 69 3.8 NNE 22 28 12 15 1006.4 1003.8 0.0
18/04:30pm 22.4 19.2 16.2 68 3.9 NE 28 37 15 20 1006.3 1003.7 0.0
18/04:00pm 22.5 19.7 16.3 68 3.9 NNE 26 41 14 22 1006.5 1003.9 0.0
18/03:30pm 22.3 19.4 17.0 72 3.3 NNE 28 37 15 20 1006.7 1004.2 0.0
18/03:00pm 21.5 18.0 15.6 69 3.6 NE 28 33 15 18 1006.7 1004.2 0.0
18/02:30pm 21.3 18.1 15.2 68 3.7 NNE 26 33 14 18 1007.3 1004.7 0.0
18/02:00pm 21.3 18.6 16.7 75 2.9 NE 26 32 14 17 1007.7 1005.1 0.0
18/01:30pm 21.3 19.1 16.9 76 2.8 NE 24 33 13 18 1008.0 1005.4 0.0
18/01:00pm 20.1 17.4 14.7 71 3.3 NNE 22 30 12 16 1008.5 1005.9 0.0
18/12:30pm 19.4 15.2 14.6 74 2.9 NNE 30 39 16 21 1008.9 1006.3 0.0
18/12:00pm 18.7 14.0 14.4 76 2.6 NNE 32 43 17 23 1009.1 1006.5 0.0
18/11:56am 18.7 14.0 14.4 76 2.6 NNE 32 43 17 23 1009.1 1006.5 0.0
18/11:30am 18.4 14.5 15.5 83 1.8 NNE 30 39 16 21 1009.6 1007.1 0.0
18/11:00am 17.8 12.7 14.7 82 1.9 NNE 35 50 19 27 1009.7 1007.2 0.0
18/10:30am 16.9 11.7 14.5 86 1.4 NNE 35 46 19 25 1010.4 1007.8 0.0
18/10:00am 16.3 11.0 14.1 87 1.3 NNE 35 44 19 24 1010.6 1008.0 0.0
18/09:30am 15.7 10.8 13.7 88 1.2 NNE 32 39 17 21 1010.8 1008.3 0.0
18/09:00am 15.2 11.1 13.7 91 0.9 NNE 28 43 15 23 1010.9 1008.4 0.0
18/08:30am 14.3 10.5 13.5 95 0.5 NNE 26 35 14 19 1011.0 1008.5 0.0
18/08:09am 13.6 10.4 13.0 96 0.3 NNE 22 32 12 17 1011.3 1008.8 0.0
18/08:00am 13.7 10.1 13.1 96 0.3 NNE 24 33 13 18 1011.4 1008.9 0.0
18/07:30am 13.3 10.4 12.8 97 0.3 NNE 20 28 11 15 1011.4 1008.9 0.0
18/07:00am 12.8 9.3 12.3 97 0.3 NNE 22 32 12 17 1011.0 1008.5 0.0
18/06:30am 12.6 9.5 12.1 97 0.3 NNE 20 30 11 16 1010.5 1007.9 0.0
18/06:00am 12.4 9.2 11.9 97 0.3 NNE 20 28 11 15 1010.2 1007.6 0.0
18/05:30am 12.4 10.5 11.9 97 0.3 NNE 13 17 7 9 1010.2 1007.6 0.0
18/05:00am 12.2 9.5 11.7 97 0.3 NNE 17 24 9 13 1010.2 1007.6 0.0
18/04:30am 12.0 8.6 11.4 96 0.3 NNE 20 26 11 14 1010.2 1007.6 0.0
18/04:00am 12.1 8.8 11.5 96 0.3 NNE 20 28 11 15 1010.0 1007.4 0.0
18/03:48am 12.0 8.8 11.2 95 0.4 NNE 19 24 10 13 1010.0 1007.4 0.0
18/03:30am 11.9 8.5 11.1 95 0.4 NNE 20 28 11 15 1010.2 1007.6 0.0
18/03:00am 11.9 7.3 11.1 95 0.4 NNE 26 32 14 17 1010.5 1007.9 0.0
18/02:30am 11.8 7.5 10.9 94 0.5 NE 24 32 13 17 1010.6 1008.0 0.0
18/02:00am 11.9 8.4 11.0 94 0.5 NE 20 32 11 17 1010.7 1008.2 0.0
18/01:30am 11.9 8.0 10.8 93 0.6 NNE 22 32 12 17 1011.1 1008.6 0.0
18/01:00am 12.0 9.1 10.9 93 0.6 NE 17 20 9 11 1011.4 1008.9 0.0
18/12:30am 11.9 9.4 11.0 94 0.5 NE 15 20 8 11 1011.9 1009.3 0.0
18/12:00am 12.0 9.2 11.2 95 0.4 NE 17 24 9 13 1012.0 1009.5 0.0
 
Date/Time
EDT
Temp
°C
App
Temp
°C
Dew
Point
Rel
Hum
%
Delta-T
°C
Wind Press
QNH
hPa
Press
MSL
hPa
Rain
since 9 am
mm
Dir
 
Spd
km/h
Gust
km/h
Spd
kts
Gust
kts
17/11:49pm 11.9 8.5 11.1 95 0.4 NE 20 26 11 14 1012.1 1009.6 0.0
17/11:30pm 12.0 8.8 11.4 96 0.3 NE 19 26 10 14 1012.2 1009.7 0.0
17/11:00pm 12.0 8.8 11.2 95 0.4 NE 19 22 10 12 1012.4 1009.9 0.0
17/10:30pm 11.9 9.0 11.1 95 0.4 ENE 17 20 9 11 1012.6 1010.1 0.0
17/10:00pm 11.8 8.9 11.0 95 0.4 ENE 17 24 9 13 1012.6 1010.1 0.0
17/09:30pm 11.7 9.1 10.8 94 0.5 ENE 15 20 8 11 1012.1 1009.6 0.0
17/09:00pm 12.0 9.8 10.9 93 0.6 ENE 13 17 7 9 1012.2 1009.7 0.0
17/08:38pm 12.1 9.1 10.7 91 0.8 ENE 17 20 9 11 1011.9 1009.3 0.0
17/08:30pm 12.2 9.6 10.6 90 0.9 ENE 15 19 8 10 1011.8 1009.2 0.0
17/08:00pm 12.4 9.3 10.3 87 1.1 ENE 17 22 9 12 1011.3 1008.8 0.0
17/07:31pm 12.8 9.7 10.2 84 1.4 E 17 20 9 11 1011.1 1008.6 0.0
17/07:30pm 12.8 9.7 10.2 84 1.4 E 17 20 9 11 1011.0 1008.5 0.0
17/07:00pm 13.1 9.9 9.9 81 1.7 ENE 17 20 9 11 1010.5 1007.9 0.0
17/06:30pm 13.3 9.7 9.7 79 1.9 E 19 24 10 13 1010.2 1007.6 0.0
17/06:00pm 14.0 11.3 10.4 79 2.0 ENE 15 20 8 11 1009.5 1007.0 0.0
17/05:30pm 14.0 10.8 9.8 76 2.2 E 17 22 9 12 1009.3 1006.7 0.0
17/05:00pm 14.5 11.9 10.7 78 2.1 E 15 20 8 11 1009.2 1006.6 0.0
17/04:30pm 14.7 11.4 10.9 78 2.1 E 19 24 10 13 1009.1 1006.5 0.0
17/04:00pm 13.9 10.1 9.7 76 2.2 E 20 32 11 17 1009.2 1006.6 0.0
17/03:30pm 15.3 12.6 11.7 79 2.0 E 17 24 9 13 1009.0 1006.4 0.0
17/03:00pm 14.2 9.7 10.2 77 2.2 ESE 24 33 13 18 1009.1 1006.5 0.0
17/02:30pm 14.6 10.7 9.6 72 2.7 E 20 35 11 19 1008.9 1006.3 0.0
17/02:00pm 16.3 13.6 11.7 74 2.6 E 17 22 9 12 1008.8 1006.2 0.0
17/01:30pm 15.8 12.4 11.2 74 2.6 ENE 20 24 11 13 1008.8 1006.2 0.0
17/01:00pm 16.3 12.8 11.0 71 2.9 E 20 28 11 15 1008.6 1006.0 0.0
17/12:30pm 17.6 15.6 12.7 73 2.8 ESE 15 22 8 12 1008.6 1006.0 0.0
17/12:00pm 17.2 14.9 11.7 70 3.1 ESE 15 20 8 11 1008.5 1005.9 0.0
17/11:30am 16.4 13.4 12.0 75 2.5 SSE 19 30 10 16 1008.5 1005.9 0.0
17/11:00am 15.9 12.7 11.1 73 2.7 SE 19 26 10 14 1008.2 1005.7 0.0
17/10:30am 16.2 12.8 11.4 73 2.7 SSE 20 26 11 14 1008.1 1005.6 0.0
17/10:00am 15.7 12.9 11.3 75 2.5 SSE 17 22 9 12 1008.1 1005.6 0.0
17/09:30am 14.9 12.1 11.5 80 1.9 SE 17 22 9 12 1008.0 1005.4 0.0
17/09:27am 14.7 11.9 11.5 81 1.8 SE 17 22 9 12 1008.0 1005.4 0.0
17/09:00am 14.4 11.1 11.0 80 1.9 SE 19 24 10 13 1008.0 1005.4 0.0
17/08:30am 15.0 12.0 12.5 85 1.4 ESE 20 26 11 14 1007.6 1005.0 0.0
17/08:00am 14.0 10.7 11.7 86 1.3 SE 20 26 11 14 1007.4 1004.8 0.0
17/07:30am 13.5 10.8 11.7 89 1.0 SSE 17 24 9 13 1007.0 1004.4 0.0
17/07:00am 13.2 10.1 11.6 90 0.9 SSE 19 24 10 13 1006.1 1003.5 0.0
17/06:57am 13.2 10.1 11.6 90 0.9 SSE 19 24 10 13 1006.1 1003.5 0.0
17/06:30am 13.1 11.3 12.0 93 0.6 S 13 20 7 11 1005.6 1003.0 0.0
17/06:00am 13.4 11.7 12.5 94 0.5 S 13 19 7 10 1005.1 1002.5 0.0
17/05:30am 13.2 10.2 12.1 93 0.6 SSE 19 24 10 13 1004.6 1002.0 0.0
17/05:02am 13.6 11.5 12.5 93 0.6 SSE 15 22 8 12 1004.2 1001.6 0.0
17/05:00am 13.6 11.2 12.5 93 0.6 SSE 17 22 9 12 1004.1 1001.4 0.0
17/04:51am 13.5 10.4 12.2 92 0.7 SSE 20 30 11 16 1003.9 1001.2 0.0
17/04:30am 14.2 10.2 11.7 85 1.4 SSE 24 32 13 17 1003.4 1000.8 0.0
17/04:00am 16.5 13.7 8.7 60 4.2 W 13 15 7 8 1002.8 1000.1 0.0
17/03:30am 15.8 14.4 10.8 72 2.8 W 9 11 5 6 1002.7 1000.0 0.0
17/03:00am 15.4 15.3 12.2 81 1.8 WNW 4 9 2 5 1002.3 999.6 0.0
17/02:30am 15.2 15.5 13.4 89 1.0 WNW 4 7 2 4 1002.0 999.4 0.0
17/02:00am 16.0 15.8 13.7 86 1.3 WNW 7 7 4 4 1002.0 999.4 0.0
17/01:30am 15.8 17.1 14.0 89 1.1 CALM 0 0 0 0 1002.3 999.6 0.0
17/01:00am 16.3 17.5 13.8 85 1.5 CALM 0 0 0 0 1002.0 999.4 0.0
17/12:30am 18.1 17.8 13.4 74 2.7 N 7 11 4 6 1002.5 999.8 0.0
17/12:00am 18.5 18.3 13.1 71 3.2 NNE 6 9 3 5 1002.4 999.7 0.0
 
Date/Time
EDT
Temp
°C
App
Temp
°C
Dew
Point
Rel
Hum
%
Delta-T
°C
Wind Press
QNH
hPa
Press
MSL
hPa
Rain
since 9 am
mm
Dir
 
Spd
km/h
Gust
km/h
Spd
kts
Gust
kts
16/11:30pm 18.8 18.7 13.9 73 2.9 ENE 7 9 4 5 1002.4 999.7 0.0
16/11:00pm 18.7 17.5 12.7 68 3.5 NE 11 15 6 8 1002.2 999.5 0.0
16/10:30pm 19.5 15.7 5.9 41 7.0 NE 15 19 8 10 1001.9 999.3 0.0
16/10:00pm 19.6 16.0 0.6 28 8.8 NNE 9 11 5 6 1001.9 999.3 0.0
16/09:30pm 23.1 18.5 -4.1 16 11.8 NW 11 13 6 7 1001.8 999.2 0.0
16/09:00pm 23.9 19.4 -3.4 16 12.2 WNW 11 13 6 7 1001.8 999.2 0.0
16/08:30pm 24.5 19.6 -3.8 15 12.5 WSW 13 17 7 9 1001.9 999.3 0.0
16/08:00pm 26.0 19.4 -3.5 14 13.4 WSW 22 32 12 17 1001.6 999.0 0.0
16/07:30pm 27.5 21.4 -2.3 14 13.9 WSW 20 30 11 16 1001.3 998.6 0.0
16/07:00pm 28.6 21.0 -2.5 13 14.6 W 28 41 15 22 1000.9 998.2 0.0
16/06:33pm 29.2 21.0 -1.0 14 14.6 W 32 54 17 29 1000.1 997.4 0.0
16/06:30pm 29.2 21.2 -2.0 13 14.8 W 30 46 16 25 1000.1 997.4 0.0
16/06:22pm 29.1 21.6 -1.1 14 14.5 WNW 28 46 15 25 1000.0 997.3 0.0
16/06:00pm 25.1 23.9 16.0 57 5.7 N 17 26 9 14 1000.1 997.4 0.0
16/05:30pm 24.4 21.3 15.6 58 5.5 NNE 26 37 14 20 999.7 997.0 0.0

Other Formats:

Comma delimited format used in spreadsheet applications
http://www.bom.gov.au/fwo/IDN60801/IDN60801.94746.axf

JavaScript Object Notation format (JSON) in row-major order
http://www.bom.gov.au/fwo/IDN60801/IDN60801.94746.json